sensor_id;sensor_type;location;lat;lon;timestamp;P1;durP1;ratioP1;P2;durP2;ratioP2
62903;SDS011;49000;50.698;13.322;2023-03-01T00:01:22;16.97;;;8.27;;
62903;SDS011;49000;50.698;13.322;2023-03-01T00:03:50;14.53;;;8.03;;
62903;SDS011;49000;50.698;13.322;2023-03-01T00:06:17;15.87;;;7.30;;
62903;SDS011;49000;50.698;13.322;2023-03-01T00:08:43;16.70;;;8.50;;
62903;SDS011;49000;50.698;13.322;2023-03-01T00:11:12;14.23;;;8.23;;
62903;SDS011;49000;50.698;13.322;2023-03-01T00:13:40;15.43;;;8.73;;
62903;SDS011;49000;50.698;13.322;2023-03-01T00:16:08;14.87;;;8.37;;
62903;SDS011;49000;50.698;13.322;2023-03-01T00:18:39;13.43;;;7.40;;
62903;SDS011;49000;50.698;13.322;2023-03-01T00:21:05;15.33;;;7.90;;
62903;SDS011;49000;50.698;13.322;2023-03-01T00:23:31;14.73;;;7.27;;
62903;SDS011;49000;50.698;13.322;2023-03-01T00:25:58;14.77;;;8.27;;
62903;SDS011;49000;50.698;13.322;2023-03-01T00:28:24;13.83;;;7.40;;
62903;SDS011;49000;50.698;13.322;2023-03-01T00:30:49;12.47;;;7.60;;
62903;SDS011;49000;50.698;13.322;2023-03-01T00:33:15;12.13;;;7.03;;
62903;SDS011;49000;50.698;13.322;2023-03-01T00:35:40;16.17;;;6.90;;
62903;SDS011;49000;50.698;13.322;2023-03-01T00:38:06;13.03;;;7.00;;
62903;SDS011;49000;50.698;13.322;2023-03-01T00:40:32;13.77;;;7.57;;
62903;SDS011;49000;50.698;13.322;2023-03-01T00:42:59;13.90;;;8.23;;
62903;SDS011;49000;50.698;13.322;2023-03-01T00:45:25;15.97;;;7.67;;
62903;SDS011;49000;50.698;13.322;2023-03-01T00:47:51;13.60;;;7.37;;
62903;SDS011;49000;50.698;13.322;2023-03-01T00:50:17;13.77;;;7.30;;
62903;SDS011;49000;50.698;13.322;2023-03-01T00:52:43;13.77;;;7.10;;
62903;SDS011;49000;50.698;13.322;2023-03-01T00:55:08;12.67;;;7.60;;
62903;SDS011;49000;50.698;13.322;2023-03-01T00:57:34;15.73;;;7.50;;
62903;SDS011;49000;50.698;13.322;2023-03-01T01:00:00;14.60;;;7.77;;
62903;SDS011;49000;50.698;13.322;2023-03-01T01:02:25;14.23;;;7.53;;
62903;SDS011;49000;50.698;13.322;2023-03-01T01:04:51;17.60;;;8.23;;
62903;SDS011;49000;50.698;13.322;2023-03-01T01:07:17;16.40;;;8.60;;
62903;SDS011;49000;50.698;13.322;2023-03-01T01:09:45;17.80;;;9.17;;
62903;SDS011;49000;50.698;13.322;2023-03-01T01:12:10;18.20;;;8.73;;
62903;SDS011;49000;50.698;13.322;2023-03-01T01:14:36;15.87;;;8.67;;
62903;SDS011;49000;50.698;13.322;2023-03-01T01:17:02;13.60;;;8.40;;
62903;SDS011;49000;50.698;13.322;2023-03-01T01:19:28;17.90;;;9.50;;
62903;SDS011;49000;50.698;13.322;2023-03-01T01:21:53;17.00;;;8.10;;
62903;SDS011;49000;50.698;13.322;2023-03-01T01:24:19;15.07;;;8.47;;
62903;SDS011;49000;50.698;13.322;2023-03-01T01:26:44;14.33;;;8.77;;
62903;SDS011;49000;50.698;13.322;2023-03-01T01:29:10;14.80;;;8.03;;
62903;SDS011;49000;50.698;13.322;2023-03-01T01:31:37;17.50;;;8.67;;
62903;SDS011;49000;50.698;13.322;2023-03-01T01:34:04;14.63;;;8.23;;
62903;SDS011;49000;50.698;13.322;2023-03-01T01:36:31;16.10;;;8.77;;
62903;SDS011;49000;50.698;13.322;2023-03-01T01:38:57;18.90;;;8.97;;
62903;SDS011;49000;50.698;13.322;2023-03-01T01:41:23;18.47;;;9.37;;
62903;SDS011;49000;50.698;13.322;2023-03-01T01:46:41;17.40;;;8.90;;
62903;SDS011;49000;50.698;13.322;2023-03-01T01:49:17;16.17;;;8.70;;
62903;SDS011;49000;50.698;13.322;2023-03-01T01:51:49;17.50;;;8.27;;
62903;SDS011;49000;50.698;13.322;2023-03-01T01:54:27;14.10;;;7.77;;
62903;SDS011;49000;50.698;13.322;2023-03-01T01:57:00;16.67;;;8.00;;
62903;SDS011;49000;50.698;13.322;2023-03-01T01:59:28;15.43;;;8.63;;
62903;SDS011;49000;50.698;13.322;2023-03-01T02:01:56;15.63;;;8.67;;
62903;SDS011;49000;50.698;13.322;2023-03-01T02:04:25;14.17;;;7.97;;
62903;SDS011;49000;50.698;13.322;2023-03-01T02:06:53;15.23;;;8.00;;
62903;SDS011;49000;50.698;13.322;2023-03-01T02:09:25;14.60;;;7.70;;
62903;SDS011;49000;50.698;13.322;2023-03-01T02:11:51;16.63;;;8.60;;
62903;SDS011;49000;50.698;13.322;2023-03-01T02:14:18;17.07;;;7.83;;
62903;SDS011;49000;50.698;13.322;2023-03-01T02:16:44;16.23;;;8.53;;
62903;SDS011;49000;50.698;13.322;2023-03-01T02:19:13;16.27;;;8.63;;
62903;SDS011;49000;50.698;13.322;2023-03-01T02:21:55;13.33;;;8.00;;
62903;SDS011;49000;50.698;13.322;2023-03-01T02:27:03;16.13;;;8.20;;
62903;SDS011;49000;50.698;13.322;2023-03-01T02:29:28;18.90;;;8.47;;
62903;SDS011;49000;50.698;13.322;2023-03-01T02:31:54;15.37;;;7.87;;
62903;SDS011;49000;50.698;13.322;2023-03-01T02:34:24;15.23;;;8.07;;
62903;SDS011;49000;50.698;13.322;2023-03-01T02:37:01;16.03;;;7.87;;
62903;SDS011;49000;50.698;13.322;2023-03-01T02:39:46;14.03;;;7.70;;
62903;SDS011;49000;50.698;13.322;2023-03-01T02:42:16;13.73;;;7.90;;
62903;SDS011;49000;50.698;13.322;2023-03-01T02:44:47;13.20;;;7.40;;
62903;SDS011;49000;50.698;13.322;2023-03-01T02:47:14;17.87;;;8.10;;
62903;SDS011;49000;50.698;13.322;2023-03-01T02:49:40;16.70;;;7.67;;
62903;SDS011;49000;50.698;13.322;2023-03-01T02:52:16;12.47;;;7.50;;
62903;SDS011;49000;50.698;13.322;2023-03-01T02:55:03;12.53;;;7.30;;
62903;SDS011;49000;50.698;13.322;2023-03-01T02:57:33;12.27;;;7.73;;
62903;SDS011;49000;50.698;13.322;2023-03-01T03:00:03;15.87;;;8.10;;
62903;SDS011;49000;50.698;13.322;2023-03-01T03:02:31;14.87;;;8.00;;
62903;SDS011;49000;50.698;13.322;2023-03-01T03:05:02;14.63;;;7.77;;
62903;SDS011;49000;50.698;13.322;2023-03-01T03:07:31;18.10;;;8.27;;
62903;SDS011;49000;50.698;13.322;2023-03-01T03:09:57;16.80;;;8.33;;
62903;SDS011;49000;50.698;13.322;2023-03-01T03:12:23;18.00;;;7.47;;
62903;SDS011;49000;50.698;13.322;2023-03-01T03:14:48;19.00;;;8.23;;
62903;SDS011;49000;50.698;13.322;2023-03-01T03:17:14;14.67;;;8.53;;
62903;SDS011;49000;50.698;13.322;2023-03-01T03:19:39;17.30;;;8.23;;
62903;SDS011;49000;50.698;13.322;2023-03-01T03:22:05;15.33;;;7.77;;
62903;SDS011;49000;50.698;13.322;2023-03-01T03:24:30;15.43;;;8.10;;
62903;SDS011;49000;50.698;13.322;2023-03-01T03:27:02;15.90;;;8.43;;
62903;SDS011;49000;50.698;13.322;2023-03-01T03:29:29;18.17;;;8.23;;
62903;SDS011;49000;50.698;13.322;2023-03-01T03:31:54;15.20;;;8.63;;
62903;SDS011;49000;50.698;13.322;2023-03-01T03:34:19;16.17;;;8.90;;
62903;SDS011;49000;50.698;13.322;2023-03-01T03:36:45;16.77;;;8.70;;
62903;SDS011;49000;50.698;13.322;2023-03-01T03:39:10;18.33;;;9.67;;
62903;SDS011;49000;50.698;13.322;2023-03-01T03:41:36;19.87;;;9.60;;
62903;SDS011;49000;50.698;13.322;2023-03-01T03:44:01;18.10;;;8.47;;
62903;SDS011;49000;50.698;13.322;2023-03-01T03:46:27;14.30;;;8.70;;
62903;SDS011;49000;50.698;13.322;2023-03-01T03:48:52;14.07;;;7.37;;
62903;SDS011;49000;50.698;13.322;2023-03-01T03:51:18;15.23;;;8.33;;
62903;SDS011;49000;50.698;13.322;2023-03-01T03:53:44;17.60;;;8.63;;
62903;SDS011;49000;50.698;13.322;2023-03-01T03:56:10;13.83;;;8.03;;
62903;SDS011;49000;50.698;13.322;2023-03-01T03:58:37;23.57;;;9.23;;
62903;SDS011;49000;50.698;13.322;2023-03-01T04:01:02;17.03;;;8.20;;
62903;SDS011;49000;50.698;13.322;2023-03-01T04:03:29;15.63;;;8.63;;
62903;SDS011;49000;50.698;13.322;2023-03-01T04:05:58;18.07;;;9.40;;
62903;SDS011;49000;50.698;13.322;2023-03-01T04:08:24;18.60;;;8.30;;
62903;SDS011;49000;50.698;13.322;2023-03-01T04:10:51;15.47;;;7.73;;
62903;SDS011;49000;50.698;13.322;2023-03-01T04:13:21;15.50;;;8.07;;
62903;SDS011;49000;50.698;13.322;2023-03-01T04:15:51;16.50;;;8.33;;
62903;SDS011;49000;50.698;13.322;2023-03-01T04:18:18;14.90;;;7.60;;
62903;SDS011;49000;50.698;13.322;2023-03-01T04:20:45;17.37;;;8.67;;
62903;SDS011;49000;50.698;13.322;2023-03-01T04:23:15;17.00;;;8.50;;
62903;SDS011;49000;50.698;13.322;2023-03-01T04:25:45;16.13;;;8.03;;
62903;SDS011;49000;50.698;13.322;2023-03-01T04:28:20;17.50;;;9.00;;
62903;SDS011;49000;50.698;13.322;2023-03-01T04:30:46;18.47;;;8.67;;
62903;SDS011;49000;50.698;13.322;2023-03-01T04:33:12;19.23;;;8.70;;
62903;SDS011;49000;50.698;13.322;2023-03-01T04:35:37;18.17;;;8.93;;
62903;SDS011;49000;50.698;13.322;2023-03-01T04:38:04;15.47;;;8.03;;
62903;SDS011;49000;50.698;13.322;2023-03-01T04:40:30;16.67;;;8.50;;
62903;SDS011;49000;50.698;13.322;2023-03-01T04:42:56;15.80;;;8.53;;
62903;SDS011;49000;50.698;13.322;2023-03-01T04:45:22;16.43;;;7.80;;
62903;SDS011;49000;50.698;13.322;2023-03-01T04:47:48;19.03;;;8.03;;
62903;SDS011;49000;50.698;13.322;2023-03-01T04:50:14;15.37;;;8.20;;
62903;SDS011;49000;50.698;13.322;2023-03-01T04:52:41;14.07;;;7.43;;
62903;SDS011;49000;50.698;13.322;2023-03-01T04:55:07;15.10;;;8.00;;
62903;SDS011;49000;50.698;13.322;2023-03-01T04:57:34;14.40;;;7.87;;
62903;SDS011;49000;50.698;13.322;2023-03-01T04:59:59;15.87;;;7.87;;
62903;SDS011;49000;50.698;13.322;2023-03-01T05:02:25;16.97;;;7.40;;
62903;SDS011;49000;50.698;13.322;2023-03-01T05:04:50;16.10;;;7.90;;
62903;SDS011;49000;50.698;13.322;2023-03-01T05:07:16;14.27;;;8.10;;
62903;SDS011;49000;50.698;13.322;2023-03-01T05:09:47;13.83;;;7.40;;
62903;SDS011;49000;50.698;13.322;2023-03-01T05:12:14;16.57;;;8.30;;
62903;SDS011;49000;50.698;13.322;2023-03-01T05:14:40;16.97;;;8.00;;
62903;SDS011;49000;50.698;13.322;2023-03-01T05:17:06;18.20;;;8.10;;
62903;SDS011;49000;50.698;13.322;2023-03-01T05:19:32;12.77;;;7.80;;
62903;SDS011;49000;50.698;13.322;2023-03-01T05:21:58;14.67;;;7.07;;
62903;SDS011;49000;50.698;13.322;2023-03-01T05:24:27;15.03;;;7.77;;
62903;SDS011;49000;50.698;13.322;2023-03-01T05:26:53;14.03;;;6.70;;
62903;SDS011;49000;50.698;13.322;2023-03-01T05:29:20;16.90;;;7.43;;
62903;SDS011;49000;50.698;13.322;2023-03-01T05:31:52;12.57;;;7.10;;
62903;SDS011;49000;50.698;13.322;2023-03-01T05:34:23;17.33;;;6.87;;
62903;SDS011;49000;50.698;13.322;2023-03-01T05:36:58;16.37;;;7.00;;
62903;SDS011;49000;50.698;13.322;2023-03-01T05:39:25;17.70;;;7.00;;
62903;SDS011;49000;50.698;13.322;2023-03-01T05:41:53;13.43;;;6.77;;
62903;SDS011;49000;50.698;13.322;2023-03-01T05:44:23;13.80;;;7.50;;
62903;SDS011;49000;50.698;13.322;2023-03-01T05:46:49;11.13;;;6.30;;
62903;SDS011;49000;50.698;13.322;2023-03-01T05:49:15;15.93;;;7.03;;
62903;SDS011;49000;50.698;13.322;2023-03-01T05:51:41;13.30;;;7.00;;
62903;SDS011;49000;50.698;13.322;2023-03-01T05:54:08;13.33;;;6.43;;
62903;SDS011;49000;50.698;13.322;2023-03-01T05:56:34;13.50;;;6.93;;
62903;SDS011;49000;50.698;13.322;2023-03-01T05:59:01;12.57;;;6.33;;
62903;SDS011;49000;50.698;13.322;2023-03-01T06:01:28;13.27;;;7.20;;
62903;SDS011;49000;50.698;13.322;2023-03-01T06:03:54;13.20;;;6.60;;
62903;SDS011;49000;50.698;13.322;2023-03-01T06:06:21;12.30;;;6.07;;
62903;SDS011;49000;50.698;13.322;2023-03-01T06:08:47;12.13;;;6.23;;
62903;SDS011;49000;50.698;13.322;2023-03-01T06:11:12;13.50;;;6.07;;
62903;SDS011;49000;50.698;13.322;2023-03-01T06:13:38;11.83;;;6.00;;
62903;SDS011;49000;50.698;13.322;2023-03-01T06:16:04;11.07;;;6.20;;
62903;SDS011;49000;50.698;13.322;2023-03-01T06:18:31;10.93;;;5.67;;
62903;SDS011;49000;50.698;13.322;2023-03-01T06:20:56;10.27;;;5.53;;
62903;SDS011;49000;50.698;13.322;2023-03-01T06:23:22;12.83;;;6.40;;
62903;SDS011;49000;50.698;13.322;2023-03-01T06:25:48;11.87;;;6.00;;
62903;SDS011;49000;50.698;13.322;2023-03-01T06:28:14;13.10;;;6.60;;
62903;SDS011;49000;50.698;13.322;2023-03-01T06:30:39;12.30;;;6.23;;
62903;SDS011;49000;50.698;13.322;2023-03-01T06:33:04;14.23;;;6.80;;
62903;SDS011;49000;50.698;13.322;2023-03-01T06:35:30;16.30;;;7.47;;
62903;SDS011;49000;50.698;13.322;2023-03-01T06:37:57;15.63;;;7.70;;
62903;SDS011;49000;50.698;13.322;2023-03-01T06:40:24;17.13;;;7.43;;
62903;SDS011;49000;50.698;13.322;2023-03-01T06:42:50;13.80;;;6.97;;
62903;SDS011;49000;50.698;13.322;2023-03-01T06:45:16;14.63;;;7.40;;
62903;SDS011;49000;50.698;13.322;2023-03-01T06:47:43;13.60;;;7.10;;
62903;SDS011;49000;50.698;13.322;2023-03-01T06:50:08;16.87;;;7.43;;
62903;SDS011;49000;50.698;13.322;2023-03-01T06:52:35;13.43;;;6.90;;
62903;SDS011;49000;50.698;13.322;2023-03-01T06:55:02;11.97;;;6.67;;
62903;SDS011;49000;50.698;13.322;2023-03-01T06:57:28;12.40;;;6.83;;
62903;SDS011;49000;50.698;13.322;2023-03-01T06:59:53;14.83;;;7.20;;
62903;SDS011;49000;50.698;13.322;2023-03-01T07:02:19;14.20;;;6.93;;
62903;SDS011;49000;50.698;13.322;2023-03-01T07:04:44;15.57;;;6.43;;
62903;SDS011;49000;50.698;13.322;2023-03-01T07:07:10;14.90;;;6.80;;
62903;SDS011;49000;50.698;13.322;2023-03-01T07:09:36;13.17;;;6.57;;
62903;SDS011;49000;50.698;13.322;2023-03-01T07:12:01;13.17;;;7.50;;
62903;SDS011;49000;50.698;13.322;2023-03-01T07:14:27;14.43;;;6.80;;
62903;SDS011;49000;50.698;13.322;2023-03-01T07:16:53;15.37;;;7.87;;
62903;SDS011;49000;50.698;13.322;2023-03-01T07:19:20;16.80;;;7.57;;
62903;SDS011;49000;50.698;13.322;2023-03-01T07:21:46;15.13;;;7.30;;
62903;SDS011;49000;50.698;13.322;2023-03-01T07:24:11;13.57;;;7.03;;
62903;SDS011;49000;50.698;13.322;2023-03-01T07:26:37;13.50;;;7.33;;
62903;SDS011;49000;50.698;13.322;2023-03-01T07:29:03;13.90;;;7.23;;
62903;SDS011;49000;50.698;13.322;2023-03-01T07:31:30;15.50;;;7.23;;
62903;SDS011;49000;50.698;13.322;2023-03-01T07:33:56;13.47;;;6.70;;
62903;SDS011;49000;50.698;13.322;2023-03-01T07:36:22;17.67;;;8.53;;
62903;SDS011;49000;50.698;13.322;2023-03-01T07:38:48;15.80;;;8.23;;
62903;SDS011;49000;50.698;13.322;2023-03-01T07:41:14;14.97;;;8.77;;
62903;SDS011;49000;50.698;13.322;2023-03-01T07:43:39;16.73;;;8.43;;
62903;SDS011;49000;50.698;13.322;2023-03-01T07:46:05;14.40;;;8.00;;
62903;SDS011;49000;50.698;13.322;2023-03-01T07:48:31;13.47;;;7.80;;
62903;SDS011;49000;50.698;13.322;2023-03-01T07:50:57;16.23;;;8.53;;
62903;SDS011;49000;50.698;13.322;2023-03-01T07:53:26;17.37;;;8.20;;
62903;SDS011;49000;50.698;13.322;2023-03-01T07:56:05;18.67;;;8.90;;
62903;SDS011;49000;50.698;13.322;2023-03-01T07:58:36;18.20;;;8.43;;
62903;SDS011;49000;50.698;13.322;2023-03-01T08:01:03;16.23;;;8.60;;
62903;SDS011;49000;50.698;13.322;2023-03-01T08:03:29;17.80;;;9.27;;
62903;SDS011;49000;50.698;13.322;2023-03-01T08:05:55;19.57;;;8.83;;
62903;SDS011;49000;50.698;13.322;2023-03-01T08:08:20;19.20;;;9.27;;
62903;SDS011;49000;50.698;13.322;2023-03-01T08:10:46;16.93;;;9.33;;
62903;SDS011;49000;50.698;13.322;2023-03-01T08:13:11;19.47;;;9.30;;
62903;SDS011;49000;50.698;13.322;2023-03-01T08:15:37;17.07;;;9.13;;
62903;SDS011;49000;50.698;13.322;2023-03-01T08:18:02;17.47;;;9.00;;
62903;SDS011;49000;50.698;13.322;2023-03-01T08:20:28;17.00;;;9.47;;
62903;SDS011;49000;50.698;13.322;2023-03-01T08:22:53;18.40;;;9.53;;
62903;SDS011;49000;50.698;13.322;2023-03-01T08:25:19;18.27;;;9.53;;
62903;SDS011;49000;50.698;13.322;2023-03-01T08:27:44;21.23;;;10.40;;
62903;SDS011;49000;50.698;13.322;2023-03-01T08:30:10;19.27;;;9.97;;
62903;SDS011;49000;50.698;13.322;2023-03-01T08:32:37;18.43;;;9.93;;
62903;SDS011;49000;50.698;13.322;2023-03-01T08:35:04;18.70;;;9.77;;
62903;SDS011;49000;50.698;13.322;2023-03-01T08:37:29;21.87;;;10.53;;
62903;SDS011;49000;50.698;13.322;2023-03-01T08:39:58;18.90;;;10.53;;
62903;SDS011;49000;50.698;13.322;2023-03-01T08:42:28;20.13;;;10.33;;
62903;SDS011;49000;50.698;13.322;2023-03-01T08:44:53;17.40;;;9.77;;
62903;SDS011;49000;50.698;13.322;2023-03-01T08:47:19;20.73;;;10.63;;
62903;SDS011;49000;50.698;13.322;2023-03-01T08:49:44;18.67;;;10.60;;
62903;SDS011;49000;50.698;13.322;2023-03-01T08:52:10;19.27;;;10.23;;
62903;SDS011;49000;50.698;13.322;2023-03-01T08:54:35;19.57;;;10.67;;
62903;SDS011;49000;50.698;13.322;2023-03-01T08:57:01;19.53;;;10.80;;
62903;SDS011;49000;50.698;13.322;2023-03-01T08:59:28;20.83;;;11.40;;
62903;SDS011;49000;50.698;13.322;2023-03-01T09:01:54;19.67;;;11.00;;
62903;SDS011;49000;50.698;13.322;2023-03-01T09:04:20;21.90;;;11.27;;
62903;SDS011;49000;50.698;13.322;2023-03-01T09:06:46;20.47;;;11.40;;
62903;SDS011;49000;50.698;13.322;2023-03-01T09:09:15;19.37;;;11.83;;
62903;SDS011;49000;50.698;13.322;2023-03-01T09:11:42;17.67;;;10.40;;
62903;SDS011;49000;50.698;13.322;2023-03-01T09:14:08;18.80;;;10.90;;
62903;SDS011;49000;50.698;13.322;2023-03-01T09:16:34;19.10;;;11.23;;
62903;SDS011;49000;50.698;13.322;2023-03-01T09:19:01;21.37;;;12.23;;
62903;SDS011;49000;50.698;13.322;2023-03-01T09:21:27;18.20;;;10.43;;
62903;SDS011;49000;50.698;13.322;2023-03-01T09:23:53;19.03;;;10.40;;
62903;SDS011;49000;50.698;13.322;2023-03-01T09:26:21;22.07;;;11.83;;
62903;SDS011;49000;50.698;13.322;2023-03-01T09:28:48;17.97;;;11.13;;
62903;SDS011;49000;50.698;13.322;2023-03-01T09:31:15;19.13;;;11.27;;
62903;SDS011;49000;50.698;13.322;2023-03-01T09:33:42;19.07;;;10.53;;
62903;SDS011;49000;50.698;13.322;2023-03-01T09:36:14;17.97;;;11.33;;
62903;SDS011;49000;50.698;13.322;2023-03-01T09:38:42;17.27;;;10.30;;
62903;SDS011;49000;50.698;13.322;2023-03-01T09:41:31;16.73;;;10.03;;
62903;SDS011;49000;50.698;13.322;2023-03-01T09:47:02;19.40;;;10.83;;
62903;SDS011;49000;50.698;13.322;2023-03-01T09:49:33;16.53;;;9.43;;
62903;SDS011;49000;50.698;13.322;2023-03-01T09:54:54;15.17;;;9.53;;
62903;SDS011;49000;50.698;13.322;2023-03-01T09:57:34;17.70;;;10.47;;
62903;SDS011;49000;50.698;13.322;2023-03-01T10:02:45;19.67;;;10.63;;
62903;SDS011;49000;50.698;13.322;2023-03-01T10:05:34;16.20;;;10.60;;
62903;SDS011;49000;50.698;13.322;2023-03-01T10:11:01;18.60;;;10.47;;
62903;SDS011;49000;50.698;13.322;2023-03-01T10:13:34;16.73;;;10.57;;
62903;SDS011;49000;50.698;13.322;2023-03-01T10:19:16;16.90;;;10.40;;
62903;SDS011;49000;50.698;13.322;2023-03-01T10:21:47;16.40;;;10.80;;
62903;SDS011;49000;50.698;13.322;2023-03-01T10:24:16;16.87;;;10.33;;
62903;SDS011;49000;50.698;13.322;2023-03-01T10:26:48;14.10;;;9.60;;
62903;SDS011;49000;50.698;13.322;2023-03-01T10:29:30;13.60;;;8.93;;
62903;SDS011;49000;50.698;13.322;2023-03-01T10:32:02;12.20;;;8.50;;
62903;SDS011;49000;50.698;13.322;2023-03-01T10:34:32;15.17;;;8.50;;
62903;SDS011;49000;50.698;13.322;2023-03-01T10:37:33;14.40;;;8.90;;
62903;SDS011;49000;50.698;13.322;2023-03-01T10:42:33;13.87;;;8.77;;
62903;SDS011;49000;50.698;13.322;2023-03-01T10:48:01;11.77;;;8.43;;
62903;SDS011;49000;50.698;13.322;2023-03-01T10:50:45;13.83;;;9.00;;
62903;SDS011;49000;50.698;13.322;2023-03-01T10:53:18;12.80;;;8.50;;
62903;SDS011;49000;50.698;13.322;2023-03-01T10:55:55;13.23;;;8.67;;
62903;SDS011;49000;50.698;13.322;2023-03-01T10:58:23;12.13;;;7.93;;
62903;SDS011;49000;50.698;13.322;2023-03-01T11:00:50;13.70;;;8.73;;
62903;SDS011;49000;50.698;13.322;2023-03-01T11:03:20;13.50;;;8.33;;
62903;SDS011;49000;50.698;13.322;2023-03-01T11:06:01;14.53;;;8.67;;
62903;SDS011;49000;50.698;13.322;2023-03-01T11:08:40;13.83;;;8.83;;
62903;SDS011;49000;50.698;13.322;2023-03-01T11:11:18;12.13;;;8.33;;
62903;SDS011;49000;50.698;13.322;2023-03-01T11:16:35;12.10;;;8.27;;
62903;SDS011;49000;50.698;13.322;2023-03-01T11:21:41;12.33;;;8.00;;
62903;SDS011;49000;50.698;13.322;2023-03-01T11:24:46;9.43;;;6.53;;
62903;SDS011;49000;50.698;13.322;2023-03-01T11:27:31;13.57;;;8.17;;
62903;SDS011;49000;50.698;13.322;2023-03-01T11:32:53;11.90;;;7.80;;
62903;SDS011;49000;50.698;13.322;2023-03-01T11:35:28;10.70;;;7.47;;
62903;SDS011;49000;50.698;13.322;2023-03-01T11:43:03;12.00;;;8.43;;
62903;SDS011;49000;50.698;13.322;2023-03-01T11:50:55;12.33;;;8.03;;
62903;SDS011;49000;50.698;13.322;2023-03-01T11:53:32;12.40;;;8.73;;
62903;SDS011;49000;50.698;13.322;2023-03-01T12:01:55;24.77;;;17.17;;
62903;SDS011;49000;50.698;13.322;2023-03-01T12:04:30;23.50;;;17.30;;
62903;SDS011;49000;50.698;13.322;2023-03-01T12:07:29;26.07;;;17.53;;
62903;SDS011;49000;50.698;13.322;2023-03-01T12:10:18;26.50;;;18.60;;
62903;SDS011;49000;50.698;13.322;2023-03-01T12:12:55;22.67;;;16.97;;
62903;SDS011;49000;50.698;13.322;2023-03-01T12:15:37;25.90;;;18.13;;
62903;SDS011;49000;50.698;13.322;2023-03-01T12:18:18;27.93;;;18.77;;
62903;SDS011;49000;50.698;13.322;2023-03-01T12:21:14;26.83;;;18.83;;
62903;SDS011;49000;50.698;13.322;2023-03-01T12:24:24;26.53;;;18.27;;
62903;SDS011;49000;50.698;13.322;2023-03-01T12:27:19;30.27;;;19.37;;
62903;SDS011;49000;50.698;13.322;2023-03-01T12:30:04;26.63;;;18.13;;
62903;SDS011;49000;50.698;13.322;2023-03-01T12:35:50;23.17;;;17.47;;
62903;SDS011;49000;50.698;13.322;2023-03-01T12:41:00;25.30;;;17.63;;
62903;SDS011;49000;50.698;13.322;2023-03-01T12:43:49;25.77;;;17.83;;
62903;SDS011;49000;50.698;13.322;2023-03-01T12:46:26;25.87;;;18.70;;
62903;SDS011;49000;50.698;13.322;2023-03-01T12:51:41;26.70;;;19.13;;
62903;SDS011;49000;50.698;13.322;2023-03-01T12:54:14;24.07;;;18.13;;
62903;SDS011;49000;50.698;13.322;2023-03-01T12:56:44;28.43;;;19.40;;
62903;SDS011;49000;50.698;13.322;2023-03-01T13:02:03;28.47;;;19.77;;
62903;SDS011;49000;50.698;13.322;2023-03-01T13:04:34;28.00;;;18.83;;
62903;SDS011;49000;50.698;13.322;2023-03-01T13:07:16;26.10;;;19.23;;
62903;SDS011;49000;50.698;13.322;2023-03-01T13:17:48;24.37;;;17.70;;
62903;SDS011;49000;50.698;13.322;2023-03-01T13:20:34;24.90;;;18.23;;
62903;SDS011;49000;50.698;13.322;2023-03-01T13:31:07;25.07;;;17.77;;
62903;SDS011;49000;50.698;13.322;2023-03-01T13:33:53;25.17;;;18.40;;
62903;SDS011;49000;50.698;13.322;2023-03-01T13:46:58;25.97;;;17.70;;
62903;SDS011;49000;50.698;13.322;2023-03-01T13:49:28;22.70;;;17.27;;
62903;SDS011;49000;50.698;13.322;2023-03-01T13:52:00;23.90;;;18.43;;
62903;SDS011;49000;50.698;13.322;2023-03-01T13:54:30;22.30;;;15.67;;
62903;SDS011;49000;50.698;13.322;2023-03-01T13:56:58;23.13;;;16.57;;
62903;SDS011;49000;50.698;13.322;2023-03-01T13:59:25;22.97;;;16.20;;
62903;SDS011;49000;50.698;13.322;2023-03-01T14:01:59;20.97;;;16.57;;
62903;SDS011;49000;50.698;13.322;2023-03-01T14:07:16;23.20;;;16.33;;
62903;SDS011;49000;50.698;13.322;2023-03-01T14:09:45;23.17;;;16.27;;
62903;SDS011;49000;50.698;13.322;2023-03-01T14:14:52;21.17;;;16.17;;
62903;SDS011;49000;50.698;13.322;2023-03-01T14:17:33;21.80;;;16.67;;
62903;SDS011;49000;50.698;13.322;2023-03-01T14:20:16;25.73;;;17.57;;
62903;SDS011;49000;50.698;13.322;2023-03-01T14:22:43;21.70;;;15.87;;
62903;SDS011;49000;50.698;13.322;2023-03-01T14:25:17;23.47;;;16.73;;
62903;SDS011;49000;50.698;13.322;2023-03-01T14:27:43;19.70;;;15.67;;
62903;SDS011;49000;50.698;13.322;2023-03-01T14:30:14;23.50;;;16.17;;
62903;SDS011;49000;50.698;13.322;2023-03-01T14:33:04;22.50;;;16.13;;
62903;SDS011;49000;50.698;13.322;2023-03-01T14:35:41;21.10;;;16.30;;
62903;SDS011;49000;50.698;13.322;2023-03-01T14:38:19;19.23;;;16.00;;
62903;SDS011;49000;50.698;13.322;2023-03-01T14:40:54;21.30;;;16.87;;
62903;SDS011;49000;50.698;13.322;2023-03-01T14:43:23;22.33;;;16.77;;
62903;SDS011;49000;50.698;13.322;2023-03-01T14:45:53;21.93;;;16.27;;
62903;SDS011;49000;50.698;13.322;2023-03-01T14:48:19;19.23;;;15.70;;
62903;SDS011;49000;50.698;13.322;2023-03-01T14:50:45;19.50;;;15.40;;
62903;SDS011;49000;50.698;13.322;2023-03-01T14:53:15;22.30;;;16.13;;
62903;SDS011;49000;50.698;13.322;2023-03-01T14:55:44;24.37;;;16.90;;
62903;SDS011;49000;50.698;13.322;2023-03-01T14:58:13;21.27;;;16.53;;
62903;SDS011;49000;50.698;13.322;2023-03-01T15:00:44;21.63;;;16.23;;
62903;SDS011;49000;50.698;13.322;2023-03-01T15:03:17;21.90;;;16.73;;
62903;SDS011;49000;50.698;13.322;2023-03-01T15:05:49;22.07;;;17.43;;
62903;SDS011;49000;50.698;13.322;2023-03-01T15:08:17;20.97;;;17.30;;
62903;SDS011;49000;50.698;13.322;2023-03-01T15:10:57;22.47;;;17.57;;
62903;SDS011;49000;50.698;13.322;2023-03-01T15:13:34;20.33;;;16.00;;
62903;SDS011;49000;50.698;13.322;2023-03-01T15:16:01;21.07;;;16.13;;
62903;SDS011;49000;50.698;13.322;2023-03-01T15:18:32;18.30;;;15.00;;
62903;SDS011;49000;50.698;13.322;2023-03-01T15:21:09;18.50;;;15.00;;
62903;SDS011;49000;50.698;13.322;2023-03-01T15:23:40;21.37;;;15.93;;
62903;SDS011;49000;50.698;13.322;2023-03-01T15:26:06;20.40;;;15.77;;
62903;SDS011;49000;50.698;13.322;2023-03-01T15:28:51;22.60;;;15.77;;
62903;SDS011;49000;50.698;13.322;2023-03-01T15:31:22;20.07;;;15.40;;
62903;SDS011;49000;50.698;13.322;2023-03-01T15:33:49;18.90;;;14.27;;
62903;SDS011;49000;50.698;13.322;2023-03-01T15:36:32;19.50;;;14.90;;
62903;SDS011;49000;50.698;13.322;2023-03-01T15:39:03;19.93;;;14.93;;
62903;SDS011;49000;50.698;13.322;2023-03-01T15:41:52;21.43;;;13.97;;
62903;SDS011;49000;50.698;13.322;2023-03-01T15:44:17;20.13;;;13.93;;
62903;SDS011;49000;50.698;13.322;2023-03-01T15:46:51;16.73;;;13.10;;
62903;SDS011;49000;50.698;13.322;2023-03-01T15:52:06;21.47;;;14.70;;
62903;SDS011;49000;50.698;13.322;2023-03-01T15:54:38;20.87;;;15.20;;
62903;SDS011;49000;50.698;13.322;2023-03-01T15:57:05;17.30;;;13.57;;
62903;SDS011;49000;50.698;13.322;2023-03-01T15:59:39;18.43;;;14.07;;
62903;SDS011;49000;50.698;13.322;2023-03-01T16:02:10;19.03;;;13.47;;
62903;SDS011;49000;50.698;13.322;2023-03-01T16:04:37;18.83;;;13.73;;
62903;SDS011;49000;50.698;13.322;2023-03-01T16:07:03;21.70;;;14.23;;
62903;SDS011;49000;50.698;13.322;2023-03-01T16:09:29;17.47;;;13.10;;